Terminal Aerodrome Forecast
Issued by NWS

Home | Current Version | Previous Version | Text Only | Print | Product List | Glossary On
Versions: 1 2 3 4 5 6 7 8 9 10 11 12 13 14 15 16 17 18 19 20 21 22 23 24 25 26 27 28 29
134
FTUS42 KCAE 260530
TAFCUB
TAF
KCUB 260530Z 2606/2706 VRB03KT P6SM SCT060 BKN120
     FM260900 VRB04KT P6SM BKN050
     FM261400 16007KT P6SM SCT025 BKN040
     FM261800 16009KT P6SM VCSH SCT025 OVC040
     FM270000 15004KT P6SM OVC050=

USA.gov is the U.S. government's official web portal to all federal, state and local government web resources and services.